createdAt,value
2018-12-29T00:02:25.569Z,0.60
2018-12-29T00:04:54.898Z,0.40
2018-12-29T00:07:24.238Z,0.30
2018-12-29T00:09:53.761Z,0.73
2018-12-29T00:12:23.197Z,0.60
2018-12-29T00:14:55.064Z,0.60
2018-12-29T00:17:42.564Z,0.70
2018-12-29T00:20:12.007Z,0.67
2018-12-29T00:22:41.801Z,1.70
2018-12-29T00:25:11.314Z,9.50
2018-12-29T00:27:40.649Z,1.03
2018-12-29T00:30:10.095Z,2.77
2018-12-29T00:32:39.670Z,0.83
2018-12-29T00:35:09.041Z,2.67
2018-12-29T00:37:38.505Z,2.53
2018-12-29T00:40:08.021Z,0.30
2018-12-29T00:42:37.438Z,0.30
2018-12-29T00:45:25.749Z,3.90
2018-12-29T00:47:55.290Z,0.70
2018-12-29T00:50:24.633Z,0.30
2018-12-29T00:52:54.163Z,0.73
2018-12-29T00:55:23.598Z,0.97
2018-12-29T00:57:53.048Z,0.40
2018-12-29T01:00:22.609Z,0.23
2018-12-29T01:03:10.814Z,0.57
2018-12-29T01:05:40.333Z,1.23
2018-12-29T01:08:09.669Z,0.93
2018-12-29T01:10:39.019Z,3.20
2018-12-29T01:13:08.536Z,0.30
2018-12-29T01:15:37.989Z,0.50
2018-12-29T01:18:07.439Z,0.20
2018-12-29T01:20:36.962Z,1.37
2018-12-29T01:23:06.302Z,0.97
2018-12-29T01:25:35.753Z,0.30
2018-12-29T01:28:05.262Z,0.40
2018-12-29T01:30:34.723Z,0.20
2018-12-29T01:33:04.146Z,0.60
2018-12-29T01:35:33.654Z,3.63
2018-12-29T01:38:21.854Z,0.20
2018-12-29T01:40:51.430Z,0.33
2018-12-29T01:43:20.862Z,0.60
2018-12-29T01:45:50.306Z,0.40
2018-12-29T01:48:19.890Z,0.90
2018-12-29T01:50:49.357Z,8.93
2018-12-29T01:53:37.673Z,0.30
2018-12-29T01:56:07.170Z,0.30
2018-12-29T01:58:36.597Z,1.27
2018-12-29T02:01:06.016Z,1.30
2018-12-29T02:03:35.349Z,0.20
2018-12-29T02:06:04.784Z,0.40
2018-12-29T02:08:53.047Z,0.40
2018-12-29T02:11:22.525Z,0.30
2018-12-29T02:13:51.962Z,1.03
2018-12-29T02:16:21.485Z,0.30
2018-12-29T02:18:50.925Z,0.50
2018-12-29T02:21:20.390Z,1.50
2018-12-29T02:23:49.925Z,0.50
2018-12-29T02:26:38.134Z,0.40
2018-12-29T02:29:07.618Z,1.63
2018-12-29T02:31:36.964Z,0.40
2018-12-29T02:34:06.393Z,0.40
2018-12-29T02:36:36.003Z,0.30
2018-12-29T02:39:07.071Z,0.70
2018-12-29T02:41:36.511Z,0.97
2018-12-29T02:44:24.775Z,0.20
2018-12-29T02:46:54.209Z,0.43
2018-12-29T02:49:23.664Z,0.20
2018-12-29T02:51:53.171Z,0.27
2018-12-29T02:54:22.606Z,1.20
2018-12-29T02:56:52.050Z,0.20
2018-12-29T02:59:21.947Z,0.20
2018-12-29T03:01:51.433Z,0.30
2018-12-29T03:04:20.918Z,0.20
2018-12-29T03:06:50.438Z,0.30
2018-12-29T03:09:19.892Z,0.40
2018-12-29T03:11:49.246Z,0.30
2018-12-29T03:14:18.693Z,0.23
2018-12-29T03:16:48.127Z,0.20
2018-12-29T03:19:17.475Z,0.20
2018-12-29T03:21:47.354Z,0.30
2018-12-29T03:24:16.799Z,0.30
2018-12-29T03:26:46.251Z,1.23
2018-12-29T03:29:15.793Z,0.30
2018-12-29T03:31:45.240Z,1.40
2018-12-29T03:34:14.683Z,2.37
2018-12-29T03:36:45.413Z,0.30
2018-12-29T03:39:15.024Z,0.37
2018-12-29T03:41:44.458Z,0.30
2018-12-29T03:44:13.980Z,0.50
2018-12-29T03:46:43.485Z,0.30
2018-12-29T03:49:12.926Z,1.27
2018-12-29T03:51:42.359Z,0.30
2018-12-29T03:54:11.803Z,0.57
2018-12-29T03:56:41.234Z,0.30
2018-12-29T03:59:10.837Z,0.20
2018-12-29T04:01:40.276Z,0.27
2018-12-29T04:04:09.646Z,0.20
2018-12-29T04:06:39.164Z,0.20
2018-12-29T04:09:25.969Z,0.20
2018-12-29T04:11:55.486Z,3.40
2018-12-29T04:14:24.930Z,0.20
2018-12-29T04:16:54.412Z,0.30
2018-12-29T04:19:23.977Z,0.30
2018-12-29T04:21:53.420Z,0.30
2018-12-29T04:24:22.771Z,0.73
2018-12-29T04:26:52.286Z,0.27
2018-12-29T04:29:22.734Z,0.30
2018-12-29T04:31:52.186Z,0.60
2018-12-29T04:34:21.795Z,0.20
2018-12-29T04:36:51.234Z,0.20
2018-12-29T04:39:39.556Z,0.57
2018-12-29T04:42:08.958Z,8.20
2018-12-29T04:44:38.462Z,0.90
2018-12-29T04:47:08.974Z,2.80
2018-12-29T04:49:57.178Z,0.50
2018-12-29T04:52:26.708Z,3.37
2018-12-29T04:55:14.902Z,0.53
2018-12-29T04:57:44.406Z,3.13
2018-12-29T05:00:15.317Z,0.70
2018-12-29T05:02:44.686Z,0.50
2018-12-29T05:05:14.116Z,0.40
2018-12-29T05:07:43.450Z,9.00
2018-12-29T05:10:31.729Z,0.43
2018-12-29T05:13:01.073Z,0.83
2018-12-29T05:15:30.578Z,0.70
2018-12-29T05:18:01.066Z,0.30
2018-12-29T05:20:31.508Z,0.50
2018-12-29T05:23:00.944Z,0.60
2018-12-29T05:25:31.106Z,0.40
2018-12-29T05:28:00.475Z,0.30
2018-12-29T05:30:29.942Z,0.50
2018-12-29T05:33:00.533Z,1.93
2018-12-29T05:35:29.867Z,0.43
2018-12-29T05:37:59.668Z,0.97
2018-12-29T05:40:29.090Z,0.67
2018-12-29T05:42:58.486Z,0.40
2018-12-29T05:45:27.930Z,0.47
2018-12-29T05:47:58.553Z,0.30
2018-12-29T05:50:27.990Z,0.60
2018-12-29T05:52:57.517Z,1.07
2018-12-29T05:55:27.046Z,0.70
2018-12-29T05:57:56.489Z,0.30
2018-12-29T06:00:25.952Z,2.97
2018-12-29T06:02:55.482Z,1.83
2018-12-29T06:05:43.677Z,0.53
2018-12-29T06:08:13.539Z,0.50
2018-12-29T06:10:42.972Z,0.30
2018-12-29T06:13:12.423Z,1.97
2018-12-29T06:15:42.261Z,0.87
2018-12-29T06:18:11.693Z,0.60
2018-12-29T06:20:42.189Z,0.30
2018-12-29T06:23:30.505Z,0.50
2018-12-29T06:26:02.321Z,0.20
2018-12-29T06:28:31.653Z,0.87
2018-12-29T06:31:01.183Z,2.90
2018-12-29T06:33:32.842Z,0.53
2018-12-29T06:36:03.398Z,0.47
2018-12-29T06:38:33.746Z,0.60
2018-12-29T06:41:21.942Z,1.00
2018-12-29T06:43:51.442Z,2.13
2018-12-29T06:46:20.877Z,1.20
2018-12-29T06:48:50.330Z,2.87
2018-12-29T06:51:20.983Z,0.90
2018-12-29T06:53:52.598Z,1.03
2018-12-29T06:56:22.082Z,1.90
2018-12-29T06:59:10.366Z,4.13
2018-12-29T07:01:39.801Z,5.92
2018-12-29T07:04:09.152Z,7.90
2018-12-29T07:06:39.513Z,0.80
2018-12-29T07:09:09.706Z,0.83
2018-12-29T07:11:39.201Z,0.83
2018-12-29T07:14:08.641Z,2.87
2018-12-29T07:16:56.844Z,0.60
2018-12-29T07:19:26.393Z,0.90
2018-12-29T07:21:56.111Z,4.97
2018-12-29T07:24:25.531Z,1.30
2018-12-29T07:26:55.041Z,0.70
2018-12-29T07:29:24.485Z,1.45
2018-12-29T07:31:53.932Z,1.80
2018-12-29T07:34:23.462Z,0.62
2018-12-29T07:36:52.894Z,3.70
2018-12-29T07:39:23.445Z,1.50
2018-12-29T07:42:11.735Z,0.40
2018-12-29T07:44:41.250Z,0.57
2018-12-29T07:47:10.616Z,0.72
2018-12-29T07:49:40.145Z,0.60
2018-12-29T07:52:09.479Z,0.73
2018-12-29T07:54:38.971Z,0.78
2018-12-29T07:57:08.487Z,0.30
2018-12-29T07:59:37.925Z,0.80
2018-12-29T08:02:07.355Z,1.90
2018-12-29T08:04:36.957Z,1.55
2018-12-29T08:07:06.403Z,0.63
2018-12-29T08:09:35.833Z,3.93
2018-12-29T08:12:05.350Z,0.97
2018-12-29T08:14:34.829Z,1.37
2018-12-29T08:17:04.294Z,0.40
2018-12-29T08:19:33.706Z,0.47
2018-12-29T08:22:03.051Z,1.50
2018-12-29T08:24:51.330Z,0.65
2018-12-29T08:27:20.870Z,0.62
2018-12-29T08:29:50.314Z,0.93
2018-12-29T08:32:19.878Z,1.17
2018-12-29T08:34:55.419Z,0.33
2018-12-29T08:39:55.782Z,5.87
2018-12-29T08:42:26.373Z,1.15
2018-12-29T08:44:55.871Z,2.15
2018-12-29T08:47:25.509Z,1.65
2018-12-29T08:49:55.294Z,4.87
2018-12-29T08:52:24.827Z,0.45
2018-12-29T08:54:54.269Z,0.82
2018-12-29T08:57:23.720Z,0.80
2018-12-29T09:00:11.998Z,0.30
2018-12-29T09:02:41.458Z,0.40
2018-12-29T09:05:10.911Z,0.30
2018-12-29T09:07:40.434Z,2.25
2018-12-29T09:10:09.912Z,3.08
2018-12-29T09:12:39.363Z,0.97
2018-12-29T09:15:09.009Z,0.73
2018-12-29T09:17:57.210Z,0.93
2018-12-29T09:20:26.635Z,4.00
2018-12-29T09:22:57.330Z,1.50
2018-12-29T09:25:26.822Z,1.93
2018-12-29T09:27:56.354Z,6.70
2018-12-29T09:30:25.797Z,2.53
2018-12-29T09:32:55.248Z,1.50
2018-12-29T09:35:24.777Z,0.88
2018-12-29T09:37:54.325Z,1.70
2018-12-29T09:40:23.767Z,0.40
2018-12-29T09:42:53.293Z,2.93
2018-12-29T09:45:22.767Z,0.33
2018-12-29T09:47:55.160Z,4.33
2018-12-29T09:50:24.746Z,0.60
2018-12-29T09:53:12.977Z,5.77
2018-12-29T09:55:42.492Z,0.70
2018-12-29T09:58:11.949Z,1.70
2018-12-29T10:00:41.381Z,1.67
2018-12-29T10:03:11.271Z,0.70
2018-12-29T10:05:40.799Z,2.57
2018-12-29T10:08:10.282Z,1.67
2018-12-29T10:10:39.807Z,0.87
2018-12-29T10:13:09.229Z,0.43
2018-12-29T10:15:39.567Z,0.50
2018-12-29T10:18:09.093Z,0.73
2018-12-29T10:20:57.293Z,0.90
2018-12-29T10:23:26.822Z,0.87
2018-12-29T10:25:56.698Z,2.37
2018-12-29T10:28:26.186Z,0.60
2018-12-29T10:30:56.694Z,3.60
2018-12-29T10:33:26.133Z,0.30
2018-12-29T10:35:55.578Z,0.40
2018-12-29T10:38:43.853Z,994.58
2018-12-29T10:41:13.197Z,810.47
2018-12-29T10:43:42.662Z,417.77
2018-12-29T10:46:13.335Z,222.03
2018-12-29T10:48:43.022Z,829.45
2018-12-29T10:51:13.853Z,701.87
2018-12-29T10:53:43.271Z,767.33
2018-12-29T10:56:31.480Z,0.90
2018-12-29T10:59:01.065Z,1.33
2018-12-29T11:01:30.618Z,0.93
2018-12-29T11:03:59.972Z,1.37
2018-12-29T11:06:29.503Z,1.40
2018-12-29T11:08:58.983Z,0.90
2018-12-29T11:11:28.430Z,0.30
2018-12-29T11:13:57.842Z,0.70
2018-12-29T11:16:46.049Z,1.15
2018-12-29T11:19:15.570Z,0.40
2018-12-29T11:21:44.930Z,0.67
2018-12-29T11:24:14.384Z,0.20
2018-12-29T11:26:44.004Z,1.03
2018-12-29T11:29:13.430Z,0.40
2018-12-29T11:31:42.871Z,0.20
2018-12-29T11:34:31.146Z,0.40
2018-12-29T11:37:00.605Z,2.10
2018-12-29T11:39:30.042Z,1.30
2018-12-29T11:41:59.454Z,0.20
2018-12-29T11:44:28.891Z,0.63
2018-12-29T11:46:58.335Z,0.30
2018-12-29T11:49:46.709Z,70.23
2018-12-29T11:52:17.069Z,635.23
2018-12-29T11:54:46.428Z,792.43
2018-12-29T11:57:15.942Z,440.40
2018-12-29T11:59:45.395Z,416.27
2018-12-29T12:02:14.837Z,326.07
2018-12-29T12:04:44.584Z,323.27
2018-12-29T12:07:33.484Z,325.50
2018-12-29T12:10:03.046Z,297.52
2018-12-29T12:12:32.515Z,927.08
2018-12-29T12:15:01.949Z,948.60
2018-12-29T12:17:31.389Z,460.13
2018-12-29T12:20:00.727Z,704.17
2018-12-29T12:22:33.062Z,411.20
2018-12-29T12:25:21.442Z,607.30
2018-12-29T12:27:51.290Z,270.40
2018-12-29T12:30:20.781Z,537.20
2018-12-29T12:32:50.403Z,399.55
2018-12-29T12:35:19.865Z,174.87
2018-12-29T12:37:49.316Z,210.30
2018-12-29T12:40:18.818Z,2.27
2018-12-29T12:43:07.021Z,0.87
2018-12-29T12:45:36.542Z,2.80
2018-12-29T12:48:06.068Z,0.30
2018-12-29T12:50:54.339Z,0.72
2018-12-29T12:53:23.874Z,1.03
2018-12-29T12:55:53.791Z,0.30
2018-12-29T12:58:23.565Z,0.20
2018-12-29T13:00:53.301Z,1.02
2018-12-29T13:03:23.243Z,0.35
2018-12-29T13:05:53.079Z,0.30
2018-12-29T13:08:24.022Z,0.57
2018-12-29T13:11:00.529Z,0.20
2018-12-29T13:13:30.022Z,0.40
2018-12-29T13:15:59.774Z,0.57
2018-12-29T13:18:29.297Z,0.40
2018-12-29T13:20:58.769Z,0.42
2018-12-29T13:23:28.124Z,0.30
2018-12-29T13:25:58.814Z,0.30
2018-12-29T13:28:28.253Z,0.20
2018-12-29T13:30:57.713Z,0.20
2018-12-29T13:33:27.146Z,0.20
2018-12-29T13:35:56.589Z,0.20
2018-12-29T13:38:26.056Z,0.20
2018-12-29T13:40:55.636Z,0.20
2018-12-29T13:43:43.837Z,0.42
2018-12-29T13:46:13.579Z,0.20
2018-12-29T13:48:43.031Z,0.20
2018-12-29T13:51:15.504Z,0.55
2018-12-29T13:53:45.381Z,0.20
2018-12-29T13:56:14.939Z,0.20
2018-12-29T13:58:44.682Z,0.20
2018-12-29T14:01:32.964Z,0.20
2018-12-29T14:04:02.434Z,0.20
2018-12-29T14:06:32.166Z,0.20
2018-12-29T14:09:03.254Z,0.20
2018-12-29T14:11:32.854Z,0.30
2018-12-29T14:14:02.453Z,0.20
2018-12-29T14:16:31.980Z,0.20
2018-12-29T14:19:20.174Z,0.20
2018-12-29T14:24:21.175Z,0.20
2018-12-29T14:27:09.626Z,0.20
2018-12-29T14:32:38.464Z,0.20
2018-12-29T14:35:07.938Z,0.20
2018-12-29T14:40:46.536Z,0.20
2018-12-29T14:43:16.046Z,0.60
2018-12-29T14:45:45.585Z,0.20
2018-12-29T14:48:37.416Z,0.30
2018-12-29T14:51:06.909Z,0.40
2018-12-29T14:53:38.821Z,0.20
2018-12-29T15:06:47.830Z,0.20
2018-12-29T15:09:17.270Z,0.87
2018-12-29T15:14:30.465Z,0.30
2018-12-29T15:16:59.934Z,0.30
2018-12-29T15:19:29.273Z,0.20
2018-12-29T15:24:40.149Z,0.20
2018-12-29T15:27:09.666Z,0.28
2018-12-29T15:29:39.109Z,0.20
2018-12-29T15:32:17.413Z,0.20
2018-12-29T15:34:46.870Z,0.30
2018-12-29T15:37:16.301Z,0.20
2018-12-29T15:44:44.053Z,0.20
2018-12-29T15:47:13.391Z,0.20
2018-12-29T15:49:42.932Z,0.20
2018-12-29T15:52:12.373Z,0.20
2018-12-29T15:54:42.219Z,0.20
2018-12-29T16:02:28.153Z,0.20
2018-12-29T16:04:57.597Z,0.30
2018-12-29T16:07:26.637Z,0.20
2018-12-29T16:09:56.223Z,0.20
2018-12-29T16:12:25.661Z,0.20
2018-12-29T16:14:55.118Z,0.30
2018-12-29T16:17:43.418Z,0.30
2018-12-29T16:20:12.861Z,0.20
2018-12-29T16:22:42.306Z,0.20
2018-12-29T16:25:11.989Z,0.20
2018-12-29T16:27:41.547Z,0.20
2018-12-29T16:30:13.435Z,0.20
2018-12-29T16:32:42.911Z,0.20
2018-12-29T16:35:31.113Z,0.20
2018-12-29T16:38:00.832Z,0.20
2018-12-29T16:40:31.152Z,0.20
2018-12-29T16:43:00.618Z,0.30
2018-12-29T16:45:30.446Z,0.20
2018-12-29T16:47:59.919Z,0.20
2018-12-29T16:50:29.375Z,0.20
2018-12-29T16:53:17.843Z,0.20
2018-12-29T16:56:06.034Z,0.30
2018-12-29T16:58:35.567Z,0.20
2018-12-29T17:01:06.385Z,0.60
2018-12-29T17:03:35.902Z,0.30
2018-12-29T17:06:05.418Z,0.37
2018-12-29T17:08:34.864Z,0.20
2018-12-29T17:11:04.646Z,0.20
2018-12-29T17:13:52.926Z,0.30
2018-12-29T17:16:41.198Z,0.20
2018-12-29T17:19:14.844Z,0.30
2018-12-29T17:21:42.077Z,0.20
2018-12-29T17:24:11.817Z,0.30
2018-12-29T17:26:41.347Z,0.30
2018-12-29T17:29:10.797Z,0.40
2018-12-29T17:32:00.058Z,0.30
2018-12-29T17:34:29.539Z,0.30
2018-12-29T17:36:59.276Z,0.20
2018-12-29T17:39:28.833Z,0.20
2018-12-29T17:41:58.282Z,0.20
2018-12-29T17:44:27.721Z,0.30
2018-12-29T17:46:57.304Z,0.20
2018-12-29T17:49:26.834Z,0.63
2018-12-29T17:51:56.579Z,0.20
2018-12-29T17:54:26.103Z,0.30
2018-12-29T17:56:55.632Z,0.30
2018-12-29T17:59:25.087Z,0.33
2018-12-29T18:01:55.023Z,0.20
2018-12-29T18:04:24.398Z,0.30
2018-12-29T18:06:53.837Z,0.20
2018-12-29T18:09:23.397Z,0.30
2018-12-29T18:11:53.532Z,0.30
2018-12-29T18:14:22.990Z,0.20
2018-12-29T18:16:52.526Z,0.20
2018-12-29T18:19:21.951Z,0.30
2018-12-29T18:22:10.226Z,2.53
2018-12-29T18:24:39.679Z,0.20
2018-12-29T18:27:09.131Z,0.30
2018-12-29T18:29:38.584Z,0.30
2018-12-29T18:32:08.028Z,0.30
2018-12-29T18:34:56.516Z,0.30
2018-12-29T18:37:26.781Z,0.40
2018-12-29T18:39:56.419Z,0.30
2018-12-29T18:42:25.856Z,0.30
2018-12-29T18:44:55.311Z,0.30
2018-12-29T18:47:24.785Z,0.30
2018-12-29T18:49:54.413Z,0.50
2018-12-29T18:52:24.162Z,0.30
2018-12-29T18:54:53.605Z,0.30
2018-12-29T18:57:23.150Z,0.40
2018-12-29T18:59:52.582Z,0.20
2018-12-29T19:02:21.917Z,0.30
2018-12-29T19:04:51.582Z,1.00
2018-12-29T19:07:21.421Z,0.20
2018-12-29T19:09:50.870Z,0.30
2018-12-29T19:12:20.418Z,0.60
2018-12-29T19:14:50.421Z,0.30
2018-12-29T19:17:19.979Z,0.30
2018-12-29T19:19:56.056Z,0.40
2018-12-29T19:22:25.550Z,0.30
2018-12-29T19:24:55.000Z,0.73
2018-12-29T19:27:43.541Z,0.40
2018-12-29T19:30:13.005Z,0.30
2018-12-29T19:32:42.464Z,0.30
2018-12-29T19:35:13.299Z,0.27
2018-12-29T19:37:42.848Z,0.30
2018-12-29T19:40:12.569Z,0.30
2018-12-29T19:42:42.549Z,0.50
2018-12-29T19:45:30.745Z,0.43
2018-12-29T19:48:00.662Z,0.50
2018-12-29T19:50:30.509Z,0.40
2018-12-29T19:52:59.942Z,0.73
2018-12-29T19:55:29.835Z,0.30
2018-12-29T19:58:18.030Z,0.30
2018-12-29T20:00:47.550Z,0.30
2018-12-29T20:03:17.495Z,0.30
2018-12-29T20:05:47.278Z,0.40
2018-12-29T20:08:16.864Z,0.30
2018-12-29T20:10:46.306Z,0.30
2018-12-29T20:13:15.737Z,0.63
2018-12-29T20:15:44.243Z,0.30
2018-12-29T20:18:14.159Z,0.43
2018-12-29T20:20:43.593Z,0.30
2018-12-29T20:23:13.413Z,0.30
2018-12-29T20:25:42.851Z,0.30
2018-12-29T20:28:12.296Z,0.30
2018-12-29T20:30:41.842Z,0.30
2018-12-29T20:33:12.153Z,0.30
2018-12-29T20:35:41.945Z,0.30
2018-12-29T20:38:12.025Z,0.30
2018-12-29T20:40:42.675Z,0.30
2018-12-29T20:43:12.115Z,0.30
2018-12-29T20:45:41.546Z,0.30
2018-12-29T20:48:11.881Z,0.30
2018-12-29T20:51:01.066Z,0.30
2018-12-29T20:53:30.527Z,0.30
2018-12-29T20:56:00.964Z,0.30
2018-12-29T20:58:30.474Z,0.30
2018-12-29T21:01:00.019Z,0.30
2018-12-29T21:03:29.442Z,0.30
2018-12-29T21:05:58.975Z,0.30
2018-12-29T21:08:47.168Z,0.30
2018-12-29T21:11:19.170Z,0.30
2018-12-29T21:14:07.444Z,0.30
2018-12-29T21:16:37.223Z,0.30
2018-12-29T21:19:09.240Z,0.30
2018-12-29T21:21:38.694Z,0.30
2018-12-29T21:24:12.217Z,0.30
2018-12-29T21:26:39.210Z,0.30
2018-12-29T21:29:08.660Z,0.30
2018-12-29T21:31:56.934Z,0.30
2018-12-29T21:34:26.397Z,0.30
2018-12-29T21:36:55.837Z,0.50
2018-12-29T21:39:25.300Z,0.30
2018-12-29T21:41:55.877Z,0.30
2018-12-29T21:44:25.481Z,0.60
2018-12-29T21:46:55.006Z,0.30
2018-12-29T21:49:24.510Z,0.40
2018-12-29T21:51:53.941Z,1.50
2018-12-29T21:54:23.425Z,0.30
2018-12-29T21:56:52.862Z,0.40
2018-12-29T21:59:22.310Z,0.30
2018-12-29T22:01:51.814Z,0.30
2018-12-29T22:04:24.424Z,0.50
2018-12-29T22:06:53.861Z,0.30
2018-12-29T22:09:23.371Z,0.50
2018-12-29T22:11:52.871Z,0.30
2018-12-29T22:14:22.316Z,0.30
2018-12-29T22:16:52.577Z,0.30
2018-12-29T22:19:22.058Z,0.30
2018-12-29T22:21:51.857Z,0.40
2018-12-29T22:24:21.394Z,4.97
2018-12-29T22:26:50.837Z,0.30
2018-12-29T22:29:22.939Z,0.30
2018-12-29T22:31:52.357Z,0.30
2018-12-29T22:34:21.798Z,0.30
2018-12-29T22:36:51.241Z,0.97
2018-12-29T22:39:20.759Z,0.40
2018-12-29T22:41:50.558Z,3.50
2018-12-29T22:44:20.030Z,0.30
2018-12-29T22:46:49.533Z,0.30
2018-12-29T22:49:18.974Z,0.30
2018-12-29T22:51:48.401Z,0.30
2018-12-29T22:54:17.914Z,0.30
2018-12-29T22:56:47.356Z,0.30
2018-12-29T22:59:16.788Z,0.30
2018-12-29T23:01:46.298Z,0.30
2018-12-29T23:04:15.726Z,0.30
2018-12-29T23:06:45.272Z,0.70
2018-12-29T23:09:15.086Z,0.30
2018-12-29T23:11:44.529Z,0.70
2018-12-29T23:14:14.066Z,0.30
2018-12-29T23:16:43.733Z,0.77
2018-12-29T23:19:13.057Z,0.30
2018-12-29T23:21:42.512Z,0.40
2018-12-29T23:24:12.386Z,0.53
2018-12-29T23:26:41.828Z,0.73
2018-12-29T23:29:11.461Z,1.50
2018-12-29T23:31:41.096Z,0.47
2018-12-29T23:34:29.289Z,0.40
2018-12-29T23:36:58.809Z,0.43
2018-12-29T23:39:28.301Z,0.30
2018-12-29T23:41:57.943Z,0.40
2018-12-29T23:44:27.449Z,3.90
2018-12-29T23:46:56.989Z,0.30
2018-12-29T23:49:26.741Z,0.40
2018-12-29T23:51:56.565Z,0.30
2018-12-29T23:54:26.111Z,0.40
2018-12-29T23:56:55.975Z,1.07
2018-12-29T23:59:25.493Z,1.00
